createdAt,value
2018-05-21T00:00:11.903Z,15.27
2018-05-21T00:01:20.767Z,15.14
2018-05-21T00:02:29.959Z,15.11
2018-05-21T00:03:39.097Z,15.09
2018-05-21T00:04:47.959Z,15.19
2018-05-21T00:05:56.829Z,15.21
2018-05-21T00:07:05.682Z,15.17
2018-05-21T00:08:14.870Z,15.11
2018-05-21T00:09:23.738Z,15.1
2018-05-21T00:10:32.596Z,15.11
2018-05-21T00:11:41.732Z,14.98
2018-05-21T00:12:50.881Z,14.99
2018-05-21T00:13:59.787Z,15.02
2018-05-21T00:15:08.925Z,14.98
2018-05-21T00:16:17.787Z,14.89
2018-05-21T00:17:26.645Z,14.91
2018-05-21T00:18:35.508Z,14.89
2018-05-21T00:19:44.797Z,14.86
2018-05-21T00:20:53.658Z,14.78
2018-05-21T00:22:03.074Z,14.72
2018-05-21T00:23:11.940Z,14.72
2018-05-21T00:24:20.804Z,14.73
2018-05-21T00:25:30.367Z,14.72
2018-05-21T00:26:39.503Z,14.64
2018-05-21T00:27:48.644Z,14.7
2018-05-21T00:28:57.785Z,14.61
2018-05-21T00:30:06.650Z,14.62
2018-05-21T00:31:15.886Z,14.57
2018-05-21T00:32:24.747Z,14.64
2018-05-21T00:33:33.608Z,14.64
2018-05-21T00:34:42.749Z,14.61
2018-05-21T00:35:51.889Z,14.68
2018-05-21T00:37:00.804Z,14.52
2018-05-21T00:38:09.952Z,14.54
2018-05-21T00:39:19.093Z,14.46
2018-05-21T00:40:27.955Z,14.46
2018-05-21T00:41:36.818Z,14.45
2018-05-21T00:42:46.109Z,14.42
2018-05-21T00:43:55.528Z,14.47
2018-05-21T00:45:04.393Z,14.42
2018-05-21T00:46:13.539Z,14.43
2018-05-21T00:47:22.393Z,14.32
2018-05-21T00:48:31.406Z,14.36
2018-05-21T00:49:40.544Z,14.33
2018-05-21T00:50:49.407Z,14.27
2018-05-21T00:51:58.270Z,14.2
2018-05-21T00:53:07.129Z,14.21
2018-05-21T00:54:16.189Z,14.25
2018-05-21T00:55:25.053Z,14.24
2018-05-21T00:56:33.911Z,14.27
2018-05-21T00:57:42.773Z,14.22
2018-05-21T00:58:51.908Z,14.15
2018-05-21T01:00:01.400Z,14.07
2018-05-21T01:01:10.259Z,14.07
2018-05-21T01:02:19.123Z,14
2018-05-21T01:03:27.983Z,14.03
2018-05-21T01:04:36.843Z,14.07
2018-05-21T01:05:46.059Z,14.03
2018-05-21T01:06:54.919Z,14.04
2018-05-21T01:08:03.780Z,13.97
2018-05-21T01:09:12.638Z,14
2018-05-21T01:10:21.772Z,13.99
2018-05-21T01:11:30.912Z,13.99
2018-05-21T01:12:40.106Z,14
2018-05-21T01:13:48.968Z,13.89
2018-05-21T01:14:57.828Z,13.95
2018-05-21T01:16:06.687Z,14.09
2018-05-21T01:17:15.647Z,14.04
2018-05-21T01:18:24.515Z,13.96
2018-05-21T01:19:33.369Z,13.97
2018-05-21T01:20:42.229Z,13.87
2018-05-21T01:21:51.091Z,13.81
2018-05-21T01:22:59.953Z,13.75
2018-05-21T01:24:08.812Z,13.75
2018-05-21T01:25:17.675Z,13.82
2018-05-21T01:26:27.195Z,13.75
2018-05-21T01:27:36.056Z,13.7
2018-05-21T01:28:45.371Z,13.77
2018-05-21T01:29:54.233Z,13.66
2018-05-21T01:31:03.094Z,13.64
2018-05-21T01:32:12.233Z,13.63
2018-05-21T01:33:21.095Z,13.64
2018-05-21T01:34:30.155Z,13.66
2018-05-21T01:35:39.019Z,13.6
2018-05-21T01:36:47.877Z,13.57
2018-05-21T01:37:56.738Z,13.63
2018-05-21T01:39:05.596Z,13.55
2018-05-21T01:40:15.093Z,13.63
2018-05-21T01:41:23.953Z,13.57
2018-05-21T01:42:32.812Z,13.52
2018-05-21T01:43:41.674Z,13.49
2018-05-21T01:44:50.532Z,13.6
2018-05-21T01:45:59.446Z,13.51
2018-05-21T01:47:08.594Z,13.6
2018-05-21T01:48:17.451Z,13.54
2018-05-21T01:49:26.315Z,13.51
2018-05-21T01:50:35.453Z,13.57
2018-05-21T01:51:44.363Z,13.55
2018-05-21T01:52:53.222Z,13.52
2018-05-21T01:54:02.359Z,13.52
2018-05-21T01:55:11.220Z,13.41
2018-05-21T01:56:20.080Z,13.44
2018-05-21T01:57:28.941Z,13.52
2018-05-21T01:58:38.078Z,13.59
2018-05-21T01:59:46.938Z,13.51
2018-05-21T02:00:55.797Z,13.48
2018-05-21T02:02:04.943Z,13.52
2018-05-21T02:03:14.185Z,13.49
2018-05-21T02:04:23.605Z,13.44
2018-05-21T02:05:32.463Z,13.46
2018-05-21T02:06:41.325Z,13.52
2018-05-21T02:07:50.185Z,13.28
2018-05-21T02:08:59.394Z,13.36
2018-05-21T02:10:08.535Z,13.44
2018-05-21T02:11:17.393Z,13.36
2018-05-21T02:12:26.254Z,13.32
2018-05-21T02:13:35.111Z,13.29
2018-05-21T02:14:44.303Z,13.39
2018-05-21T02:15:53.167Z,13.33
2018-05-21T02:17:02.029Z,13.28
2018-05-21T02:18:10.895Z,13.3
2018-05-21T02:19:19.751Z,13.23
2018-05-21T02:20:28.973Z,13.26
2018-05-21T02:21:37.824Z,13.23
2018-05-21T02:22:47.240Z,13.22
2018-05-21T02:23:56.665Z,13.2
2018-05-21T02:25:05.804Z,13.19
2018-05-21T02:26:15.094Z,13.22
2018-05-21T02:27:23.950Z,13.14
2018-05-21T02:28:32.814Z,13.05
2018-05-21T02:29:41.672Z,13.11
2018-05-21T02:30:50.823Z,13.1
2018-05-21T02:31:59.879Z,13.14
2018-05-21T02:33:08.744Z,13.03
2018-05-21T02:34:17.611Z,13.11
2018-05-21T02:35:27.052Z,13.08
2018-05-21T02:36:36.752Z,13.03
2018-05-21T02:37:46.272Z,13.03
2018-05-21T02:38:55.993Z,13
2018-05-21T02:40:05.142Z,12.97
2018-05-21T02:41:14.008Z,12.95
2018-05-21T02:42:23.430Z,12.96
2018-05-21T02:43:32.666Z,12.96
2018-05-21T02:44:41.531Z,12.97
2018-05-21T02:45:50.672Z,12.96
2018-05-21T02:46:59.808Z,12.9
2018-05-21T02:48:08.952Z,12.96
2018-05-21T02:49:17.961Z,12.9
2018-05-21T02:50:27.100Z,12.89
2018-05-21T02:51:35.959Z,12.89
2018-05-21T02:52:44.826Z,12.89
2018-05-21T02:53:53.967Z,12.82
2018-05-21T02:55:03.481Z,12.95
2018-05-21T02:56:12.618Z,12.83
2018-05-21T02:57:21.760Z,12.82
2018-05-21T02:58:30.624Z,12.82
2018-05-21T02:59:39.764Z,12.72
2018-05-21T03:00:48.672Z,12.75
2018-05-21T03:01:57.529Z,12.79
2018-05-21T03:03:06.387Z,12.77
2018-05-21T03:04:15.525Z,12.71
2018-05-21T03:05:24.663Z,12.75
2018-05-21T03:06:33.572Z,12.64
2018-05-21T03:07:42.714Z,12.67
2018-05-21T03:08:51.574Z,12.71
2018-05-21T03:10:00.435Z,12.68
2018-05-21T03:11:09.297Z,12.68
2018-05-21T03:12:18.307Z,12.62
2018-05-21T03:13:27.168Z,12.64
2018-05-21T03:14:36.302Z,12.57
2018-05-21T03:15:45.159Z,12.68
2018-05-21T03:16:54.297Z,12.6
2018-05-21T03:18:03.168Z,12.6
2018-05-21T03:19:12.017Z,12.56
2018-05-21T03:20:20.875Z,12.6
2018-05-21T03:21:29.730Z,12.67
2018-05-21T03:22:38.593Z,12.6
2018-05-21T03:23:47.452Z,12.59
2018-05-21T03:24:56.312Z,12.49
2018-05-21T03:26:05.174Z,12.53
2018-05-21T03:27:14.035Z,12.49
2018-05-21T03:28:22.894Z,12.5
2018-05-21T03:29:32.105Z,12.45
2018-05-21T03:30:40.967Z,12.52
2018-05-21T03:31:50.116Z,12.49
2018-05-21T03:32:58.981Z,12.5
2018-05-21T03:34:07.837Z,12.46
2018-05-21T03:35:17.077Z,12.49
2018-05-21T03:36:26.225Z,12.49
2018-05-21T03:37:35.082Z,12.46
2018-05-21T03:38:44.221Z,12.49
2018-05-21T03:39:53.359Z,12.41
2018-05-21T03:41:02.220Z,12.53
2018-05-21T03:42:11.084Z,12.53
2018-05-21T03:43:20.218Z,12.5
2018-05-21T03:44:29.080Z,12.49
2018-05-21T03:45:37.937Z,12.42
2018-05-21T03:46:46.799Z,12.39
2018-05-21T03:47:55.657Z,12.39
2018-05-21T03:49:04.802Z,12.45
2018-05-21T03:50:13.666Z,12.45
2018-05-21T03:51:22.525Z,12.41
2018-05-21T03:52:31.867Z,12.47
2018-05-21T03:53:40.730Z,12.45
2018-05-21T03:54:49.865Z,12.37
2018-05-21T03:55:58.725Z,12.38
2018-05-21T03:57:07.584Z,12.35
2018-05-21T03:58:16.544Z,12.35
2018-05-21T03:59:25.407Z,12.35
2018-05-21T04:00:34.262Z,12.42
2018-05-21T04:01:43.122Z,12.35
2018-05-21T04:02:51.983Z,12.39
2018-05-21T04:04:00.949Z,12.42
2018-05-21T04:05:09.803Z,12.42
2018-05-21T04:06:18.948Z,12.49
2018-05-21T04:07:27.808Z,12.42
2018-05-21T04:08:36.943Z,12.37
2018-05-21T04:09:45.853Z,12.37
2018-05-21T04:10:54.714Z,12.38
2018-05-21T04:12:03.582Z,12.41
2018-05-21T04:13:12.995Z,12.38
2018-05-21T04:14:22.131Z,12.46
2018-05-21T04:15:30.991Z,12.49
2018-05-21T04:16:39.851Z,12.47
2018-05-21T04:17:48.710Z,12.5
2018-05-21T04:18:57.570Z,12.46
2018-05-21T04:20:06.435Z,12.53
2018-05-21T04:21:15.665Z,12.53
2018-05-21T04:22:24.809Z,12.5
2018-05-21T04:23:33.667Z,12.5
2018-05-21T04:24:42.530Z,12.49
2018-05-21T04:25:51.663Z,12.53
2018-05-21T04:27:00.673Z,12.53
2018-05-21T04:28:09.533Z,12.57
2018-05-21T04:29:18.395Z,12.6
2018-05-21T04:30:27.259Z,12.52
2018-05-21T04:31:36.116Z,12.6
2018-05-21T04:32:45.027Z,12.64
2018-05-21T04:33:54.162Z,12.62
2018-05-21T04:35:03.023Z,12.54
2018-05-21T04:36:12.437Z,12.56
2018-05-21T04:37:21.297Z,12.52
2018-05-21T04:38:30.415Z,12.54
2018-05-21T04:39:39.601Z,12.64
2018-05-21T04:40:48.461Z,12.68
2018-05-21T04:41:57.606Z,12.65
2018-05-21T04:43:06.463Z,12.68
2018-05-21T04:44:15.379Z,12.67
2018-05-21T04:45:24.233Z,12.7
2018-05-21T04:46:33.097Z,12.65
2018-05-21T04:47:42.232Z,12.68
2018-05-21T04:48:51.089Z,12.68
2018-05-21T04:50:00.303Z,12.82
2018-05-21T04:51:09.441Z,12.79
2018-05-21T04:52:18.579Z,12.77
2018-05-21T04:53:27.992Z,12.83
2018-05-21T04:54:37.132Z,12.79
2018-05-21T04:55:45.993Z,12.79
2018-05-21T04:56:54.855Z,12.87
2018-05-21T04:58:03.713Z,12.83
2018-05-21T04:59:12.573Z,12.9
2018-05-21T05:00:21.710Z,12.93
2018-05-21T05:01:30.671Z,12.95
2018-05-21T05:02:39.530Z,13.01
2018-05-21T05:03:48.398Z,13.01
2018-05-21T05:04:57.259Z,13.01
2018-05-21T05:06:06.125Z,13.07
2018-05-21T05:07:15.424Z,13.05
2018-05-21T05:08:24.273Z,13.11
2018-05-21T05:09:33.135Z,13.1
2018-05-21T05:10:41.995Z,13.11
2018-05-21T05:11:50.859Z,13.22
2018-05-21T05:12:59.765Z,13.29
2018-05-21T05:14:08.627Z,13.25
2018-05-21T05:15:17.485Z,13.25
2018-05-21T05:16:26.346Z,13.33
2018-05-21T05:17:35.209Z,13.3
2018-05-21T05:18:44.340Z,13.33
2018-05-21T05:19:53.183Z,13.33
2018-05-21T05:21:02.359Z,13.45
2018-05-21T05:22:11.508Z,13.51
2018-05-21T05:23:20.371Z,13.49
2018-05-21T05:24:29.332Z,13.55
2018-05-21T05:25:38.191Z,13.62
2018-05-21T05:26:47.055Z,13.57
2018-05-21T05:27:55.913Z,13.59
2018-05-21T05:29:04.772Z,13.49
2018-05-21T05:30:13.735Z,13.55
2018-05-21T05:31:22.595Z,13.57
2018-05-21T05:32:31.455Z,13.67
2018-05-21T05:33:40.317Z,13.67
2018-05-21T05:34:49.453Z,13.73
2018-05-21T05:35:58.769Z,13.7
2018-05-21T05:37:07.555Z,13.71
2018-05-21T05:38:16.415Z,13.79
2018-05-21T05:39:25.276Z,13.82
2018-05-21T05:40:34.138Z,13.89
2018-05-21T05:41:43.149Z,13.84
2018-05-21T05:42:52.014Z,14.07
2018-05-21T05:44:00.879Z,13.97
2018-05-21T05:45:10.015Z,14.06
2018-05-21T05:46:18.879Z,14.04
2018-05-21T05:47:27.883Z,14.17
2018-05-21T05:48:37.026Z,14.15
2018-05-21T05:49:45.888Z,14.18
2018-05-21T05:50:55.031Z,14.18
2018-05-21T05:52:03.890Z,14.25
2018-05-21T05:53:12.748Z,14.27
2018-05-21T05:54:21.607Z,14.29
2018-05-21T05:55:30.748Z,14.33
2018-05-21T05:56:39.610Z,14.32
2018-05-21T05:57:48.473Z,14.28
2018-05-21T05:58:57.331Z,14.39
2018-05-21T06:00:06.198Z,14.4
2018-05-21T06:01:15.054Z,14.58
2018-05-21T06:02:23.920Z,14.65
2018-05-21T06:03:32.854Z,14.65
2018-05-21T06:04:42.106Z,14.8
2018-05-21T06:05:50.965Z,14.88
2018-05-21T06:07:00.102Z,14.81
2018-05-21T06:08:08.965Z,14.94
2018-05-21T06:09:17.827Z,14.94
2018-05-21T06:10:26.687Z,14.95
2018-05-21T06:11:36.113Z,15.01
2018-05-21T06:12:45.257Z,15.01
2018-05-21T06:13:54.124Z,15.07
2018-05-21T06:15:03.259Z,15.03
2018-05-21T06:16:12.270Z,15.13
2018-05-21T06:17:21.132Z,15.17
2018-05-21T06:18:30.277Z,15.31
2018-05-21T06:19:39.139Z,15.34
2018-05-21T06:20:48.001Z,15.39
2018-05-21T06:21:57.013Z,15.39
2018-05-21T06:23:05.877Z,15.38
2018-05-21T06:24:14.739Z,15.38
2018-05-21T06:25:23.602Z,15.49
2018-05-21T06:26:33.017Z,15.53
2018-05-21T06:27:42.128Z,15.56
2018-05-21T06:28:50.988Z,15.49
2018-05-21T06:29:59.850Z,15.51
2018-05-21T06:31:09.276Z,15.68
2018-05-21T06:32:18.132Z,15.87
2018-05-21T06:33:27.268Z,16.05
2018-05-21T06:34:36.422Z,16.09
2018-05-21T06:35:45.734Z,16.15
2018-05-21T06:36:54.883Z,16.24
2018-05-21T06:38:03.747Z,16.35
2018-05-21T06:39:12.607Z,16.35
2018-05-21T06:40:21.471Z,16.41
2018-05-21T06:41:30.335Z,16.48
2018-05-21T06:42:39.198Z,16.5
2018-05-21T06:43:48.340Z,16.64
2018-05-21T06:44:57.831Z,16.68
2018-05-21T06:46:06.978Z,16.83
2018-05-21T06:47:16.121Z,16.67
2018-05-21T06:48:24.988Z,16.81
2018-05-21T06:49:33.852Z,16.85
2018-05-21T06:50:43.114Z,16.91
2018-05-21T06:51:51.978Z,16.83
2018-05-21T06:53:01.122Z,16.85
2018-05-21T06:54:09.989Z,16.89
2018-05-21T06:55:18.851Z,16.88
2018-05-21T06:56:27.865Z,16.94
2018-05-21T06:57:36.755Z,16.89
2018-05-21T06:58:45.592Z,16.91
2018-05-21T06:59:55.185Z,17.15
2018-05-21T07:01:04.136Z,17.15
2018-05-21T07:02:12.918Z,17.19
2018-05-21T07:03:21.781Z,17.11
2018-05-21T07:04:30.921Z,17.14
2018-05-21T07:05:39.784Z,17.33
2018-05-21T07:06:48.647Z,17.33
2018-05-21T07:07:58.174Z,17.46
2018-05-21T07:09:07.323Z,17.46
2018-05-21T07:10:16.462Z,17.44
2018-05-21T07:11:25.326Z,17.58
2018-05-21T07:12:34.193Z,17.66
2018-05-21T07:13:43.507Z,17.79
2018-05-21T07:14:52.369Z,17.71
2018-05-21T07:16:01.235Z,17.79
2018-05-21T07:17:10.099Z,17.86
2018-05-21T07:18:19.652Z,17.82
2018-05-21T07:19:28.404Z,17.95
2018-05-21T07:20:37.269Z,18.05
2018-05-21T07:21:46.135Z,18.07
2018-05-21T07:22:55.276Z,18
2018-05-21T07:24:04.147Z,17.96
2018-05-21T07:25:13.103Z,17.99
2018-05-21T07:26:21.969Z,18.02
2018-05-21T07:27:31.118Z,18.03
2018-05-21T07:28:40.258Z,17.96
2018-05-21T07:29:49.121Z,18
2018-05-21T07:30:58.035Z,18.1
2018-05-21T07:32:06.900Z,18.08
2018-05-21T07:33:15.765Z,18.18
2018-05-21T07:34:24.634Z,18.17
2018-05-21T07:35:33.497Z,18.15
2018-05-21T07:36:42.510Z,18.26
2018-05-21T07:37:51.379Z,18.37
2018-05-21T07:39:00.574Z,18.35
2018-05-21T07:40:09.439Z,18.39
2018-05-21T07:41:18.298Z,18.48
2018-05-21T07:42:27.168Z,18.47
2018-05-21T07:43:36.034Z,18.54
2018-05-21T07:44:45.031Z,18.58
2018-05-21T07:45:54.463Z,18.54
2018-05-21T07:47:03.604Z,18.67
2018-05-21T07:48:12.848Z,18.67
2018-05-21T07:49:21.719Z,18.78
2018-05-21T07:50:30.578Z,18.76
2018-05-21T07:51:39.509Z,18.81
2018-05-21T07:52:48.314Z,18.85
2018-05-21T07:53:57.453Z,18.91
2018-05-21T07:55:06.319Z,18.95
2018-05-21T07:56:15.179Z,18.95
2018-05-21T07:57:24.042Z,18.99
2018-05-21T07:58:32.905Z,19.1
2018-05-21T07:59:41.870Z,19.18
2018-05-21T08:00:50.736Z,19.18
2018-05-21T08:01:59.593Z,19.18
2018-05-21T08:03:08.458Z,19.19
2018-05-21T08:04:17.319Z,19.23
2018-05-21T08:05:26.333Z,19.26
2018-05-21T08:06:35.196Z,19.31
2018-05-21T08:07:44.061Z,19.41
2018-05-21T08:08:52.923Z,19.32
2018-05-21T08:10:01.787Z,19.43
2018-05-21T08:11:10.838Z,19.4
2018-05-21T08:12:19.668Z,19.44
2018-05-21T08:13:28.533Z,19.5
2018-05-21T08:14:37.706Z,19.63
2018-05-21T08:15:46.976Z,19.61
2018-05-21T08:16:55.840Z,19.68
2018-05-21T08:18:04.704Z,19.8
2018-05-21T08:19:13.569Z,19.91
2018-05-21T08:20:22.708Z,19.91
2018-05-21T08:21:31.852Z,19.87
2018-05-21T08:22:40.722Z,19.86
2018-05-21T08:23:49.583Z,19.94
2018-05-21T08:24:58.442Z,20.01
2018-05-21T08:26:07.310Z,19.94
2018-05-21T08:27:16.452Z,20.02
2018-05-21T08:28:25.311Z,20.01
2018-05-21T08:29:34.174Z,20.11
2018-05-21T08:30:43.327Z,20.13
2018-05-21T08:31:52.185Z,20.17
2018-05-21T08:33:01.049Z,20.17
2018-05-21T08:34:10.064Z,20.14
2018-05-21T08:35:18.928Z,20.17
2018-05-21T08:36:27.794Z,20.29
2018-05-21T08:37:36.942Z,20.28
2018-05-21T08:38:46.076Z,20.35
2018-05-21T08:39:55.136Z,20.32
2018-05-21T08:41:04.000Z,20.32
2018-05-21T08:42:13.149Z,20.26
2018-05-21T08:43:22.013Z,20.36
2018-05-21T08:44:30.877Z,20.51
2018-05-21T08:45:39.840Z,20.58
2018-05-21T08:46:48.708Z,20.61
2018-05-21T08:47:57.574Z,20.48
2018-05-21T08:49:07.001Z,20.52
2018-05-21T08:50:15.869Z,20.55
2018-05-21T08:51:25.011Z,20.58
2018-05-21T08:52:33.882Z,20.67
2018-05-21T08:53:42.748Z,20.67
2018-05-21T08:54:51.620Z,20.73
2018-05-21T08:56:00.477Z,20.8
2018-05-21T08:57:10.058Z,20.8
2018-05-21T08:58:18.917Z,20.94
2018-05-21T08:59:27.783Z,20.79
2018-05-21T09:00:36.646Z,20.88
2018-05-21T09:01:45.510Z,20.92
2018-05-21T09:02:54.376Z,21.04
2018-05-21T09:04:03.243Z,20.98
2018-05-21T09:05:12.109Z,21.09
2018-05-21T09:06:20.971Z,21.01
2018-05-21T09:07:29.837Z,21.04
2018-05-21T09:08:39.151Z,21.24
2018-05-21T09:09:48.015Z,21.35
2018-05-21T09:10:56.877Z,21.25
2018-05-21T09:12:05.744Z,21.25
2018-05-21T09:13:14.607Z,21.22
2018-05-21T09:14:23.472Z,21.17
2018-05-21T09:15:32.611Z,21.21
2018-05-21T09:16:41.904Z,21.13
2018-05-21T09:17:50.718Z,21.29
2018-05-21T09:18:59.586Z,21.28
2018-05-21T09:20:08.985Z,21.28
2018-05-21T09:21:18.127Z,21.31
2018-05-21T09:22:26.990Z,21.47
2018-05-21T09:23:36.215Z,21.62
2018-05-21T09:24:45.355Z,21.65
2018-05-21T09:25:54.321Z,21.64
2018-05-21T09:27:03.191Z,21.71
2018-05-21T09:28:12.057Z,21.74
2018-05-21T09:29:21.196Z,21.62
2018-05-21T09:30:30.067Z,21.75
2018-05-21T09:31:38.985Z,21.86
2018-05-21T09:32:47.849Z,21.8
2018-05-21T09:33:56.717Z,21.62
2018-05-21T09:35:05.582Z,21.79
2018-05-21T09:36:14.447Z,21.88
2018-05-21T09:37:23.637Z,21.9
2018-05-21T09:38:32.466Z,21.99
2018-05-21T09:39:41.892Z,21.96
2018-05-21T09:40:51.036Z,21.99
2018-05-21T09:42:00.188Z,21.92
2018-05-21T09:43:09.500Z,21.99
2018-05-21T09:44:18.375Z,22
2018-05-21T09:45:27.238Z,22.03
2018-05-21T09:46:36.110Z,22
2018-05-21T09:47:45.257Z,22.17
2018-05-21T09:48:54.275Z,22.24
2018-05-21T09:50:03.140Z,22.1
2018-05-21T09:51:12.005Z,22.22
2018-05-21T09:52:20.869Z,22.27
2018-05-21T09:53:29.734Z,22.3
2018-05-21T09:54:38.953Z,22.09
2018-05-21T09:55:48.095Z,22.18
2018-05-21T09:56:56.963Z,22.27
2018-05-21T09:58:05.831Z,22.31
2018-05-21T09:59:14.696Z,22.33
2018-05-21T10:00:23.563Z,22.4
2018-05-21T10:01:32.430Z,22.39
2018-05-21T10:02:41.298Z,22.61
2018-05-21T10:03:50.164Z,22.64
2018-05-21T10:04:59.035Z,22.64
2018-05-21T10:06:07.901Z,22.72
2018-05-21T10:07:16.765Z,22.73
2018-05-21T10:08:25.916Z,22.79
2018-05-21T10:09:34.781Z,22.82
2018-05-21T10:10:43.644Z,22.76
2018-05-21T10:11:52.513Z,22.85
2018-05-21T10:13:01.379Z,22.75
2018-05-21T10:14:10.519Z,22.88
2018-05-21T10:15:19.672Z,22.95
2018-05-21T10:16:28.540Z,22.97
2018-05-21T10:17:37.833Z,22.95
2018-05-21T10:18:46.987Z,23.02
2018-05-21T10:19:55.852Z,23
2018-05-21T10:21:04.719Z,23.05
2018-05-21T10:22:13.866Z,22.94
2018-05-21T10:23:22.832Z,23
2018-05-21T10:24:31.700Z,22.94
2018-05-21T10:25:40.565Z,23.01
2018-05-21T10:26:49.430Z,22.77
2018-05-21T10:27:58.295Z,22.97
2018-05-21T10:29:07.261Z,23.13
2018-05-21T10:30:16.128Z,23.15
2018-05-21T10:31:24.996Z,23.25
2018-05-21T10:32:33.861Z,23.36
2018-05-21T10:33:43.005Z,23.31
2018-05-21T10:34:51.921Z,23.35
2018-05-21T10:36:01.063Z,23.54
2018-05-21T10:37:10.009Z,23.39
2018-05-21T10:38:19.163Z,23.48
2018-05-21T10:39:28.307Z,23.48
2018-05-21T10:40:37.174Z,23.61
2018-05-21T10:41:46.041Z,23.51
2018-05-21T10:42:54.907Z,23.6
2018-05-21T10:44:03.771Z,23.61
2018-05-21T10:45:12.643Z,23.65
2018-05-21T10:46:21.865Z,23.69
2018-05-21T10:47:31.012Z,23.54
2018-05-21T10:48:39.875Z,23.78
2018-05-21T10:49:48.744Z,23.69
2018-05-21T10:50:57.700Z,23.73
2018-05-21T10:52:06.807Z,23.66
2018-05-21T10:53:15.672Z,23.7
2018-05-21T10:54:24.537Z,23.69
2018-05-21T10:55:33.681Z,23.76
2018-05-21T10:56:42.546Z,23.9
2018-05-21T10:57:51.512Z,23.98
2018-05-21T10:59:00.656Z,23.91
2018-05-21T11:00:09.519Z,24.06
2018-05-21T11:01:18.386Z,24.05
2018-05-21T11:02:27.532Z,24.18
2018-05-21T11:03:36.553Z,24.2
2018-05-21T11:04:45.467Z,24.2
2018-05-21T11:05:54.567Z,24.1
2018-05-21T11:07:03.435Z,24.08
2018-05-21T11:08:12.302Z,24.1
2018-05-21T11:09:21.169Z,24.09
2018-05-21T11:10:30.314Z,24.16
2018-05-21T11:11:39.462Z,24.3
2018-05-21T11:12:48.329Z,23.97
2018-05-21T11:13:57.194Z,24.18
2018-05-21T11:15:06.388Z,24.37
2018-05-21T11:16:15.532Z,24.42
2018-05-21T11:17:24.952Z,24.46
2018-05-21T11:18:33.820Z,24.5
2018-05-21T11:19:42.967Z,24.53
2018-05-21T11:20:52.259Z,24.61
2018-05-21T11:22:01.125Z,24.62
2018-05-21T11:23:09.992Z,24.67
2018-05-21T11:24:19.138Z,24.68
2018-05-21T11:25:28.005Z,24.76
2018-05-21T11:26:37.200Z,24.73
2018-05-21T11:27:46.064Z,24.69
2018-05-21T11:28:54.933Z,24.83
2018-05-21T11:30:04.078Z,24.77
2018-05-21T11:31:12.945Z,24.83
2018-05-21T11:32:21.912Z,24.87
2018-05-21T11:33:30.776Z,24.95
2018-05-21T11:34:39.643Z,24.99
2018-05-21T11:35:48.510Z,25
2018-05-21T11:36:57.468Z,24.8
2018-05-21T11:38:06.293Z,25
2018-05-21T11:39:15.159Z,25.15
2018-05-21T11:40:24.304Z,25.28
2018-05-21T11:41:33.172Z,25.32
2018-05-21T11:42:42.037Z,25.24
2018-05-21T11:43:51.709Z,25.28
2018-05-21T11:45:00.584Z,25.3
2018-05-21T11:46:09.445Z,25.42
2018-05-21T11:47:18.594Z,25.43
2018-05-21T11:48:27.737Z,25.42
2018-05-21T11:49:36.755Z,25.52
2018-05-21T11:50:46.031Z,25.45
2018-05-21T11:51:55.226Z,25.46
2018-05-21T11:53:04.094Z,25.4
2018-05-21T11:54:12.963Z,25.5
2018-05-21T11:55:21.832Z,25.45
2018-05-21T11:56:30.702Z,25.52
2018-05-21T11:57:39.845Z,25.64
2018-05-21T11:58:48.714Z,25.65
2018-05-21T11:59:57.586Z,25.58
2018-05-21T12:01:06.505Z,25.95
2018-05-21T12:02:15.658Z,26.01
2018-05-21T12:03:25.084Z,26.05
2018-05-21T12:04:33.958Z,25.87
2018-05-21T12:05:43.108Z,25.76
2018-05-21T12:06:52.129Z,25.92
2018-05-21T12:08:01.006Z,25.92
2018-05-21T12:09:09.874Z,26.06
2018-05-21T12:10:18.745Z,26.17
2018-05-21T12:11:27.617Z,26.28
2018-05-21T12:12:36.871Z,26.3
2018-05-21T12:13:46.026Z,26.36
2018-05-21T12:14:54.898Z,26.4
2018-05-21T12:16:03.768Z,26.28
2018-05-21T12:17:12.642Z,26.37
2018-05-21T12:18:21.616Z,26.37
2018-05-21T12:19:30.490Z,26.45
2018-05-21T12:20:39.364Z,26.5
2018-05-21T12:21:48.239Z,26.47
2018-05-21T12:22:57.388Z,26.62
2018-05-21T12:24:06.464Z,26.73
2018-05-21T12:25:15.616Z,26.77
2018-05-21T12:26:24.491Z,26.87
2018-05-21T12:27:33.365Z,26.8
2018-05-21T12:28:42.616Z,26.63
2018-05-21T12:29:51.912Z,26.7
2018-05-21T12:31:00.787Z,26.84
2018-05-21T12:32:09.663Z,26.91
2018-05-21T12:33:18.543Z,26.95
2018-05-21T12:34:27.415Z,26.99
2018-05-21T12:35:36.289Z,27
2018-05-21T12:36:45.163Z,27.07
2018-05-21T12:37:54.043Z,27.13
2018-05-21T12:39:02.916Z,27.34
2018-05-21T12:40:11.792Z,27.28
2018-05-21T12:41:20.670Z,27.21
2018-05-21T12:42:29.826Z,27.5
2018-05-21T12:43:38.701Z,27.46
2018-05-21T12:44:47.580Z,27.57
2018-05-21T12:45:56.456Z,27.77
2018-05-21T12:47:05.662Z,27.69
2018-05-21T12:48:14.546Z,27.77
2018-05-21T12:49:23.425Z,27.74
2018-05-21T12:50:32.302Z,27.77
2018-05-21T12:51:41.186Z,27.82
2018-05-21T12:52:50.499Z,27.9
2018-05-21T12:53:59.373Z,27.79
2018-05-21T12:55:08.258Z,27.81
2018-05-21T12:56:17.138Z,27.55
2018-05-21T12:57:26.016Z,27.67
2018-05-21T12:58:35.242Z,27.87
2018-05-21T12:59:44.124Z,28
2018-05-21T13:00:53.283Z,28.04
2018-05-21T13:02:02.166Z,28.17
2018-05-21T13:03:11.042Z,28.33
2018-05-21T13:04:19.924Z,28.36
2018-05-21T13:05:28.802Z,28.39
2018-05-21T13:06:37.682Z,28.52
2018-05-21T13:07:46.566Z,28.56
2018-05-21T13:08:55.438Z,28.36
2018-05-21T13:10:04.323Z,28.27
2018-05-21T13:11:13.199Z,28.33
2018-05-21T13:12:22.078Z,28.49
2018-05-21T13:13:30.962Z,28.48
2018-05-21T13:14:39.842Z,28.54
2018-05-21T13:15:49.077Z,28.59
2018-05-21T13:16:58.234Z,28.66
2018-05-21T13:18:07.394Z,28.77
2018-05-21T13:19:16.557Z,28.85
2018-05-21T13:20:25.438Z,28.76
2018-05-21T13:21:34.321Z,28.54
2018-05-21T13:22:43.209Z,28.52
2018-05-21T13:23:52.374Z,28.31
2018-05-21T13:25:01.258Z,28.46
2018-05-21T13:26:10.421Z,28.41
2018-05-21T13:27:19.726Z,28.7
2018-05-21T13:28:28.609Z,28.85
2018-05-21T13:29:37.486Z,28.71
2018-05-21T13:30:46.643Z,28.59
2018-05-21T13:31:55.523Z,28.56
2018-05-21T13:33:04.832Z,28.61
2018-05-21T13:34:13.714Z,28.74
2018-05-21T13:35:22.595Z,28.8
2018-05-21T13:36:31.478Z,29.02
2018-05-21T13:37:40.914Z,29.04
2018-05-21T13:38:50.424Z,29.16
2018-05-21T13:39:59.305Z,29.36
2018-05-21T13:41:08.184Z,29.19
2018-05-21T13:42:17.064Z,29.45
2018-05-21T13:43:26.229Z,29.3
2018-05-21T13:44:35.118Z,29
2018-05-21T13:45:44.580Z,29.21
2018-05-21T13:46:53.461Z,29.36
2018-05-21T13:48:02.344Z,29.53
2018-05-21T13:49:11.223Z,29.51
2018-05-21T13:50:20.830Z,29.64
2018-05-21T13:51:29.708Z,29.79
2018-05-21T13:52:39.006Z,29.74
2018-05-21T13:53:47.888Z,29.68
2018-05-21T13:54:56.770Z,29.67
2018-05-21T13:56:05.701Z,29.92
2018-05-21T13:57:14.583Z,30.19
2018-05-21T13:58:23.741Z,30.24
2018-05-21T13:59:32.623Z,30.19
2018-05-21T14:00:41.503Z,30.2
2018-05-21T14:01:50.821Z,30.24
2018-05-21T14:02:59.705Z,30.49
2018-05-21T14:04:08.863Z,30.55
2018-05-21T14:05:17.745Z,30.82
2018-05-21T14:06:26.905Z,30.77
2018-05-21T14:07:35.940Z,31.01
2018-05-21T14:08:45.673Z,31.1
2018-05-21T14:09:54.556Z,30.88
2018-05-21T14:11:03.438Z,30.77
2018-05-21T14:12:12.600Z,31.01
2018-05-21T14:13:21.633Z,31.04
2018-05-21T14:14:30.520Z,31.29
2018-05-21T14:15:39.682Z,31.56
2018-05-21T14:16:48.837Z,31.56
2018-05-21T14:17:57.720Z,31.13
2018-05-21T14:19:07.170Z,30.89
2018-05-21T14:20:16.050Z,31.2
2018-05-21T14:21:24.938Z,30.89
2018-05-21T14:22:33.818Z,30.95
2018-05-21T14:23:42.700Z,31.13
2018-05-21T14:24:51.583Z,30.91
2018-05-21T14:26:00.747Z,31.06
2018-05-21T14:27:09.916Z,31.17
2018-05-21T14:28:18.797Z,31.14
2018-05-21T14:29:27.988Z,31.35
2018-05-21T14:30:37.303Z,31.23
2018-05-21T14:31:46.184Z,31.2
2018-05-21T14:32:55.067Z,30.99
2018-05-21T14:34:03.951Z,31.31
2018-05-21T14:35:12.836Z,31.32
2018-05-21T14:36:22.006Z,31.53
2018-05-21T14:37:30.887Z,31.84
2018-05-21T14:38:39.773Z,31.95
2018-05-21T14:39:48.941Z,32.15
2018-05-21T14:40:57.821Z,32.21
2018-05-21T14:42:07.154Z,32.37
2018-05-21T14:43:16.046Z,32.45
2018-05-21T14:44:24.932Z,31.86
2018-05-21T14:45:33.827Z,31.76
2018-05-21T14:46:42.711Z,31.68
2018-05-21T14:47:52.155Z,31.54
2018-05-21T14:49:01.037Z,31.23
2018-05-21T14:50:09.925Z,31.57
2018-05-21T14:51:18.808Z,31.51
2018-05-21T14:52:27.687Z,31.7